Valley Springs, South Dakota
Current Conditions -  °F | °C
As of 8:34 AM on Saturday 25 Oct 2014 (Local Time) from KLYV Reporting Station
Clear Clear  
Wind Chill: 43°   Ceiling: Unl
Heat Index: 43°   Visibility: 10mi
Dew Point: 36°   Wind: 3mph
Humidity: 76%   Direction: 340°NNW
Pressure: 30.12"   Gusts: NA
Location:  43.58°N, 96.47°W
Report Text: KLYV 251334Z AUTO 34003KT 10SM CLR 06/02 A3012 RMK AO2
Loading
Personal Weather Stations






























Interactive Weather Map
Tropical Storm Tracking
New forecast layout! Learn more

10-Day Weather Forecast

Advertisements
Track Severe Weather on mobile